Time;durP1;ratioP1;P1;durP2;ratioP2;P2;SDS_P1;SDS_P2;PMS_P1;PMS_P2;Temp;Humidity;BMP_temperature;BMP_pressure;BME280_temperature;BME280_humidity;BME280_pressure;Samples;Min_cycle;Max_cycle;Signal;HPM_P1;HPM_P2
2023/03/24 00:00:04;0.00;0.00;0.62;0.00;0.00;0.62;3.03;2.20;;;25.00;26.00;;;;;;2251048;61;20417;-54
2023/03/24 00:02:51;0.00;0.00;0.62;0.00;0.00;0.62;2.63;2.13;;;25.00;26.00;;;;;;2251801;61;20367;-57
2023/03/24 00:05:37;0.00;0.00;0.62;0.00;0.00;0.62;2.73;2.30;;;25.00;26.00;;;;;;2251460;61;20451;-55
2023/03/24 00:08:22;0.00;0.00;0.62;0.00;0.00;0.62;3.10;2.23;;;25.00;26.00;;;;;;2252065;61;20443;-52
2023/03/24 00:11:10;0.00;0.00;0.62;0.00;0.00;0.62;2.67;2.27;;;25.00;26.00;;;;;;2252004;61;20406;-51
2023/03/24 00:13:57;0.00;0.00;0.62;0.00;0.00;0.62;2.90;2.30;;;25.00;26.00;;;;;;2251293;61;20809;-54
2023/03/24 00:16:44;0.00;0.00;0.62;0.00;0.00;0.62;2.83;1.87;;;25.00;26.00;;;;;;2252253;61;20378;-58
2023/03/24 00:19:29;0.00;0.00;0.62;0.00;0.00;0.62;2.67;2.30;;;25.00;26.00;;;;;;2251916;61;20412;-55
2023/03/24 00:22:13;0.00;0.00;0.62;0.00;0.00;0.62;5.07;2.30;;;25.00;26.00;;;;;;2251889;61;20636;-57
2023/03/24 00:24:58;0.00;0.00;0.62;0.00;0.00;0.62;2.10;1.70;;;25.00;26.00;;;;;;2252151;61;20430;-54
2023/03/24 00:27:43;0.00;0.00;0.62;0.00;0.00;0.62;2.90;2.10;;;25.00;26.00;;;;;;2250793;61;20394;-55
2023/03/24 00:30:29;0.00;0.00;0.62;0.00;0.00;0.62;3.77;2.60;;;25.00;26.00;;;;;;2251268;61;20362;-62
2023/03/24 00:33:15;0.00;0.00;0.62;0.00;0.00;0.62;2.13;1.90;;;25.00;26.00;;;;;;2251753;61;20413;-56
2023/03/24 00:36:00;0.00;0.00;0.62;0.00;0.00;0.62;3.03;1.90;;;25.00;26.00;;;;;;2251294;61;20391;-57
2023/03/24 00:38:49;0.00;0.00;0.62;0.00;0.00;0.62;2.97;2.13;;;25.00;26.00;;;;;;2252240;61;20378;-53
2023/03/24 00:41:33;0.00;0.00;0.62;0.00;0.00;0.62;2.47;2.13;;;25.00;26.00;;;;;;2251842;61;20370;-57
2023/03/24 00:44:19;0.00;0.00;0.62;0.00;0.00;0.62;3.00;2.20;;;25.00;26.00;;;;;;2251530;61;20906;-56
2023/03/24 00:47:04;0.00;0.00;0.62;0.00;0.00;0.62;2.37;1.60;;;25.00;26.00;;;;;;2251373;61;20831;-60
2023/03/24 00:49:52;0.00;0.00;0.62;0.00;0.00;0.62;2.30;1.73;;;25.00;26.00;;;;;;2250905;61;20888;-53
2023/03/24 00:52:42;0.00;0.00;0.62;0.00;0.00;0.62;2.40;1.80;;;25.00;26.00;;;;;;2251603;61;20452;-57
2023/03/24 00:55:27;0.00;0.00;0.62;0.00;0.00;0.62;2.40;1.50;;;25.00;26.00;;;;;;2252120;61;20466;-55
2023/03/24 00:58:17;0.00;0.00;0.62;0.00;0.00;0.62;2.80;1.93;;;25.00;26.00;;;;;;2250900;61;20375;-55
2023/03/24 01:01:01;0.00;0.00;0.62;0.00;0.00;0.62;1.83;1.53;;;25.00;26.00;;;;;;2252075;61;20387;-54
2023/03/24 01:03:46;0.00;0.00;0.62;0.00;0.00;0.62;2.10;1.70;;;25.00;26.00;;;;;;2252078;61;20887;-54
2023/03/24 01:06:35;0.00;0.00;0.62;0.00;0.00;0.62;1.90;1.43;;;25.00;26.00;;;;;;2251571;61;20882;-53
2023/03/24 01:09:20;0.00;0.00;0.62;0.00;0.00;0.62;2.60;1.63;;;25.00;26.00;;;;;;2251560;61;20379;-55
2023/03/24 01:12:05;0.00;0.00;0.62;0.00;0.00;0.62;2.00;1.70;;;25.00;26.00;;;;;;2251314;61;20362;-51
2023/03/24 01:14:52;0.00;0.00;0.62;0.00;0.00;0.62;2.00;1.40;;;25.00;26.00;;;;;;2251859;61;20358;-56
2023/03/24 01:17:36;0.00;0.00;0.62;0.00;0.00;0.62;1.90;1.50;;;25.00;26.00;;;;;;2251632;61;20381;-52
2023/03/24 01:20:23;0.00;0.00;0.62;0.00;0.00;0.62;2.47;1.60;;;25.00;26.00;;;;;;2250730;61;20370;-53
2023/03/24 01:23:10;0.00;0.00;0.62;0.00;0.00;0.62;2.40;1.90;;;25.00;26.00;;;;;;2252207;61;20378;-56
2023/03/24 01:25:57;0.00;0.00;0.62;0.00;0.00;0.62;2.50;1.80;;;25.00;26.00;;;;;;2250841;61;20813;-57
2023/03/24 01:28:42;0.00;0.00;0.62;0.00;0.00;0.62;2.27;1.77;;;25.00;26.00;;;;;;2251231;61;20803;-54
2023/03/24 01:31:27;0.00;0.00;0.62;0.00;0.00;0.62;2.80;1.80;;;25.00;25.90;;;;;;2251551;61;20887;-56
2023/03/24 01:34:12;0.00;0.00;0.62;0.00;0.00;0.62;2.17;1.60;;;25.00;26.00;;;;;;2251253;61;20778;-62
2023/03/24 01:36:57;0.00;0.00;0.62;0.00;0.00;0.62;2.10;1.60;;;25.00;26.00;;;;;;2252192;61;20511;-58
2023/03/24 01:39:43;0.00;0.00;0.62;0.00;0.00;0.62;2.10;1.60;;;25.00;26.00;;;;;;2251327;61;20423;-58
2023/03/24 01:42:29;0.00;0.00;0.62;0.00;0.00;0.62;1.87;1.20;;;25.00;26.00;;;;;;2251329;61;20421;-57
2023/03/24 01:45:54;0.00;0.00;0.62;0.00;0.00;0.62;2.40;1.70;;;25.00;26.00;;;;;;2252062;61;20453;-55
2023/03/24 01:48:44;0.00;0.00;0.62;0.00;0.00;0.62;2.10;1.70;;;25.00;26.00;;;;;;2251139;61;21051;-51
2023/03/24 01:51:34;0.00;0.00;0.62;0.00;0.00;0.62;2.60;1.77;;;25.00;26.00;;;;;;2251560;61;20359;-57
2023/03/24 01:54:23;0.00;0.00;0.62;0.00;0.00;0.62;2.47;1.70;;;25.00;26.00;;;;;;2251558;61;20383;-53
2023/03/24 01:57:19;0.00;0.00;0.62;0.00;0.00;0.62;2.37;1.63;;;25.00;26.00;;;;;;2250964;61;20744;-54
2023/03/24 02:00:10;0.00;0.00;0.62;0.00;0.00;0.62;2.00;1.57;;;25.00;26.00;;;;;;2250993;61;20363;-54
2023/03/24 02:03:24;0.00;0.00;0.62;0.00;0.00;0.62;2.10;1.20;;;25.00;26.00;;;;;;2251674;61;20407;-59
2023/03/24 02:06:14;0.00;0.00;0.62;0.00;0.00;0.62;2.10;1.40;;;25.00;26.00;;;;;;2251403;61;20863;-58
2023/03/24 02:09:00;0.00;0.00;0.62;0.00;0.00;0.62;1.80;1.30;;;25.00;26.00;;;;;;2251098;61;20382;-54
2023/03/24 02:11:46;0.00;0.00;0.62;0.00;0.00;0.62;1.70;1.30;;;25.00;26.00;;;;;;2250670;61;20456;-55
2023/03/24 02:14:32;0.00;0.00;0.62;0.00;0.00;0.62;1.60;1.30;;;25.00;26.00;;;;;;2248642;61;20935;-57
2023/03/24 02:17:39;0.00;0.00;0.62;0.00;0.00;0.62;2.67;1.80;;;25.00;26.00;;;;;;2251502;61;20814;-55
2023/03/24 02:21:05;0.00;0.00;0.62;0.00;0.00;0.62;2.20;1.53;;;25.00;26.00;;;;;;2250582;61;20454;-55
2023/03/24 02:24:19;0.00;0.00;0.62;0.00;0.00;0.62;1.80;1.33;;;24.90;25.90;;;;;;2251323;61;20378;-54
2023/03/24 02:27:21;0.00;0.00;0.62;0.00;0.00;0.62;2.50;1.40;;;24.90;25.90;;;;;;2250985;61;20391;-55
2023/03/24 02:30:42;0.00;0.00;0.62;0.00;0.00;0.62;1.90;1.40;;;24.90;25.90;;;;;;2251671;61;20840;-52
2023/03/24 02:34:26;0.00;0.00;0.62;0.00;0.00;0.62;1.80;1.40;;;24.90;26.00;;;;;;2251271;61;20891;-56
2023/03/24 02:38:02;0.00;0.00;0.62;0.00;0.00;0.62;2.00;1.50;;;24.90;26.00;;;;;;2252224;61;20406;-55
2023/03/24 02:40:57;0.00;0.00;0.62;0.00;0.00;0.62;1.70;1.10;;;24.90;26.00;;;;;;2242426;61;20364;-54
2023/03/24 02:43:52;0.00;0.00;0.62;0.00;0.00;0.62;2.60;1.50;;;24.90;26.00;;;;;;2254614;61;20383;-58
2023/03/24 02:46:44;0.00;0.00;0.62;0.00;0.00;0.62;2.63;1.50;;;24.90;26.00;;;;;;2252040;61;20391;-54
2023/03/24 02:49:36;0.00;0.00;0.62;0.00;0.00;0.62;1.93;1.10;;;24.90;26.00;;;;;;2251128;61;20847;-56
2023/03/24 02:52:31;0.00;0.00;0.62;0.00;0.00;0.62;2.00;1.37;;;24.90;26.50;;;;;;2252328;61;20355;-59
2023/03/24 02:55:20;0.00;0.00;0.62;0.00;0.00;0.62;1.97;1.60;;;24.90;26.00;;;;;;2252035;61;20808;-53
2023/03/24 02:58:13;0.00;0.00;0.62;0.00;0.00;0.62;1.70;1.40;;;24.90;26.00;;;;;;2252516;61;20774;-53
2023/03/24 03:01:12;0.00;0.00;0.62;0.00;0.00;0.62;2.30;1.10;;;24.90;26.00;;;;;;2251941;61;20954;-54
2023/03/24 03:04:21;0.00;0.00;0.62;0.00;0.00;0.62;1.80;1.40;;;24.90;26.00;;;;;;2251755;61;20386;-57
2023/03/24 03:07:10;0.00;0.00;0.62;0.00;0.00;0.62;1.63;1.43;;;24.90;26.00;;;;;;2252075;61;20978;-51
2023/03/24 03:10:01;0.00;0.00;0.62;0.00;0.00;0.62;1.70;1.30;;;24.90;26.00;;;;;;2251441;61;20367;-60
2023/03/24 03:12:50;0.00;0.00;0.62;0.00;0.00;0.62;1.73;1.20;;;24.90;26.00;;;;;;2252273;61;20375;-54
2023/03/24 03:15:41;0.00;0.00;0.62;0.00;0.00;0.62;2.20;1.10;;;24.90;26.00;;;;;;2252631;61;20786;-56
2023/03/24 03:18:31;0.00;0.00;0.62;0.00;0.00;0.62;1.87;1.20;;;24.90;26.00;;;;;;2251177;61;20374;-56
2023/03/24 03:21:20;0.00;0.00;0.62;0.00;0.00;0.62;1.47;0.93;;;24.90;26.00;;;;;;2252663;61;20451;-53
2023/03/24 03:24:10;0.00;0.00;0.62;0.00;0.00;0.62;1.40;0.90;;;24.90;26.00;;;;;;2251899;61;20888;-51
2023/03/24 03:26:59;0.00;0.00;0.62;0.00;0.00;0.62;1.90;1.20;;;24.90;26.00;;;;;;2251850;61;20886;-55
2023/03/24 03:29:49;0.00;0.00;0.62;0.00;0.00;0.62;1.70;1.10;;;24.90;26.00;;;;;;2251973;61;20391;-61
2023/03/24 03:32:43;0.00;0.00;0.62;0.00;0.00;0.62;1.70;1.13;;;24.90;26.00;;;;;;2251178;61;20418;-55
2023/03/24 03:35:35;0.00;0.00;0.62;0.00;0.00;0.62;1.77;1.07;;;24.90;26.00;;;;;;2252337;61;20977;-53
2023/03/24 03:38:25;0.00;0.00;0.62;0.00;0.00;0.62;1.77;0.97;;;24.90;26.00;;;;;;2251975;61;20418;-53
2023/03/24 03:41:11;0.00;0.00;0.62;0.00;0.00;0.62;2.30;1.30;;;24.90;26.00;;;;;;2250973;61;20446;-58
2023/03/24 03:43:56;0.00;0.00;0.62;0.00;0.00;0.62;1.60;1.03;;;24.90;26.00;;;;;;2252319;61;20398;-56
2023/03/24 03:46:42;0.00;0.00;0.62;0.00;0.00;0.62;1.70;1.13;;;24.90;26.00;;;;;;2251774;61;20450;-50
2023/03/24 03:49:32;0.00;0.00;0.62;0.00;0.00;0.62;1.90;1.00;;;24.90;26.00;;;;;;2251084;61;20366;-53
2023/03/24 03:52:17;0.00;0.00;0.62;0.00;0.00;0.62;1.60;1.00;;;24.90;26.00;;;;;;2251936;61;20371;-55
2023/03/24 03:55:05;0.00;0.00;0.62;0.00;0.00;0.62;1.50;0.97;;;24.90;26.00;;;;;;2250975;61;20418;-58
2023/03/24 03:57:50;0.00;0.00;0.62;0.00;0.00;0.62;2.37;1.00;;;24.90;26.00;;;;;;2252536;61;20378;-54
2023/03/24 04:00:47;0.00;0.00;0.62;0.00;0.00;0.62;2.00;1.50;;;24.90;26.00;;;;;;2251780;61;20456;-48
2023/03/24 04:04:07;0.00;0.00;0.62;0.00;0.00;0.62;1.50;1.00;;;24.90;26.00;;;;;;2251779;61;20878;-49
2023/03/24 04:07:23;0.00;0.00;0.62;0.00;0.00;0.62;1.60;1.20;;;24.90;26.00;;;;;;2252124;61;20795;-59
2023/03/24 04:10:35;0.00;0.00;0.62;0.00;0.00;0.62;1.87;1.20;;;24.90;26.00;;;;;;2250759;61;20434;-50
2023/03/24 04:13:32;0.00;0.00;0.62;0.00;0.00;0.62;1.73;1.10;;;24.90;26.00;;;;;;2251811;61;20370;-49
2023/03/24 04:16:41;0.00;0.00;0.62;0.00;0.00;0.62;1.30;0.90;;;24.90;26.10;;;;;;2251889;61;20816;-52
2023/03/24 04:19:44;0.00;0.00;0.62;0.00;0.00;0.62;1.40;0.90;;;24.90;26.10;;;;;;2248931;61;20463;-53
2023/03/24 04:22:47;0.00;0.00;0.62;0.00;0.00;0.62;1.40;0.80;;;24.80;26.00;;;;;;2251922;61;20406;-52
2023/03/24 04:25:55;0.00;0.00;0.62;0.00;0.00;0.62;1.50;1.00;;;24.90;26.10;;;;;;2251570;61;20522;-53
2023/03/24 04:28:51;0.00;0.00;0.62;0.00;0.00;0.62;1.70;0.97;;;24.80;26.00;;;;;;2251676;61;20381;-50
2023/03/24 04:31:43;0.00;0.00;0.62;0.00;0.00;0.62;1.70;1.00;;;24.80;26.00;;;;;;2251424;61;20774;-49
2023/03/24 04:34:34;0.00;0.00;0.62;0.00;0.00;0.62;2.00;1.10;;;24.80;26.00;;;;;;2251895;61;20367;-52
2023/03/24 04:37:36;0.00;0.00;0.62;0.00;0.00;0.62;1.50;0.90;;;24.80;26.00;;;;;;2251815;61;20549;-50
2023/03/24 04:40:31;0.00;0.00;0.62;0.00;0.00;0.62;1.60;1.00;;;24.80;26.00;;;;;;2250380;61;20995;-53
2023/03/24 04:43:20;0.00;0.00;0.62;0.00;0.00;0.62;1.60;1.00;;;24.90;26.10;;;;;;2251881;61;20845;-53
2023/03/24 04:46:08;0.00;0.00;0.62;0.00;0.00;0.62;1.80;1.10;;;24.80;26.00;;;;;;2251698;61;20454;-51
2023/03/24 04:49:10;0.00;0.00;0.62;0.00;0.00;0.62;1.80;1.07;;;24.90;26.10;;;;;;2251425;61;20402;-58
2023/03/24 04:51:57;0.00;0.00;0.62;0.00;0.00;0.62;1.50;0.87;;;24.80;26.00;;;;;;2251881;61;20390;-51
2023/03/24 04:54:44;0.00;0.00;0.62;0.00;0.00;0.62;1.77;1.03;;;24.80;26.00;;;;;;2251389;61;20778;-52
2023/03/24 04:57:31;0.00;0.00;0.62;0.00;0.00;0.62;1.50;0.90;;;24.80;26.00;;;;;;2251981;61;20378;-51
2023/03/24 05:00:21;0.00;0.00;0.62;0.00;0.00;0.62;1.80;1.07;;;24.90;26.10;;;;;;2251552;61;20477;-48
2023/03/24 05:03:07;0.00;0.00;0.62;0.00;0.00;0.62;1.70;0.90;;;24.80;26.00;;;;;;2251634;61;20819;-56
2023/03/24 05:05:52;0.00;0.00;0.62;0.00;0.00;0.62;1.53;0.90;;;24.90;26.10;;;;;;2251710;61;20919;-56
2023/03/24 05:08:39;0.00;0.00;0.62;0.00;0.00;0.62;1.40;0.80;;;24.80;26.00;;;;;;2251165;61;20363;-54
2023/03/24 05:11:24;0.00;0.00;0.62;0.00;0.00;0.62;1.57;1.00;;;24.80;26.00;;;;;;2252338;61;20374;-58
2023/03/24 05:14:20;0.00;0.00;0.62;0.00;0.00;0.62;1.60;0.90;;;24.80;26.00;;;;;;2251809;61;20394;-51
2023/03/24 05:17:04;0.00;0.00;0.62;0.00;0.00;0.62;1.40;0.87;;;24.80;26.00;;;;;;2250933;61;20402;-50
2023/03/24 05:19:49;0.00;0.00;0.62;0.00;0.00;0.62;1.60;1.00;;;24.80;26.00;;;;;;2251653;61;20381;-49
2023/03/24 05:22:34;0.00;0.00;0.62;0.00;0.00;0.62;1.80;1.10;;;24.80;26.00;;;;;;2252243;61;20374;-57
2023/03/24 05:25:19;0.00;0.00;0.62;0.00;0.00;0.62;1.60;0.90;;;24.90;26.10;;;;;;2250907;61;20397;-52
2023/03/24 05:28:04;0.00;0.00;0.62;0.00;0.00;0.62;1.60;1.13;;;24.80;26.00;;;;;;2251808;61;20451;-52
2023/03/24 05:30:51;0.00;0.00;0.62;0.00;0.00;0.62;1.50;0.90;;;24.80;26.00;;;;;;2250814;61;20367;-54
2023/03/24 05:34:08;0.00;0.00;0.62;0.00;0.00;0.62;1.37;0.83;;;24.80;26.10;;;;;;2252241;61;21008;-53
2023/03/24 05:37:05;0.00;0.00;0.62;0.00;0.00;0.62;1.40;0.90;;;24.80;26.00;;;;;;2251578;61;20467;-56
2023/03/24 05:39:50;0.00;0.00;0.62;0.00;0.00;0.62;1.50;0.80;;;24.80;26.00;;;;;;2251108;61;20875;-59
2023/03/24 05:42:56;0.00;0.00;0.62;0.00;0.00;0.62;1.40;1.00;;;24.80;26.10;;;;;;2251645;61;20768;-54
2023/03/24 05:45:44;0.00;0.00;0.62;0.00;0.00;0.62;2.27;1.30;;;24.80;26.00;;;;;;2250759;61;20387;-50
2023/03/24 05:48:37;0.00;0.00;0.62;0.00;0.00;0.62;1.60;1.00;;;24.80;26.00;;;;;;2251459;61;20382;-53
2023/03/24 05:51:30;0.00;0.00;0.62;0.00;0.00;0.62;1.40;0.77;;;24.80;26.10;;;;;;2251618;61;21199;-52
2023/03/24 05:54:24;0.00;0.00;0.62;0.00;0.00;0.62;1.87;1.10;;;24.80;26.00;;;;;;2250745;61;20410;-52
2023/03/24 05:57:16;0.00;0.00;0.62;0.00;0.00;0.62;1.80;1.30;;;24.80;26.10;;;;;;2251643;61;20358;-57
2023/03/24 06:00:33;0.00;0.00;0.62;0.00;0.00;0.62;1.80;1.17;;;24.80;26.10;;;;;;2246108;61;20910;-51
2023/03/24 06:03:32;0.00;0.00;0.62;0.00;0.00;0.62;1.80;1.10;;;24.80;26.10;;;;;;2252320;61;20361;-55
2023/03/24 06:06:23;0.00;0.00;0.62;0.00;0.00;0.62;1.80;1.20;;;24.80;26.10;;;;;;2252181;61;20441;-51
2023/03/24 06:09:07;0.00;0.00;0.62;0.00;0.00;0.62;2.17;1.20;;;24.80;26.10;;;;;;2251304;61;20417;-52
2023/03/24 06:11:52;0.00;0.00;0.62;0.00;0.00;0.62;2.57;1.40;;;24.80;26.10;;;;;;2252470;61;20447;-56
2023/03/24 06:14:37;0.00;0.00;0.62;0.00;0.00;0.62;1.57;1.00;;;24.80;26.10;;;;;;2252270;61;20902;-56
2023/03/24 06:17:31;0.00;0.00;0.62;0.00;0.00;0.62;1.77;1.17;;;24.80;26.10;;;;;;2252124;61;20395;-49
2023/03/24 06:20:21;0.00;0.00;0.62;0.00;0.00;0.62;1.50;1.00;;;24.80;26.10;;;;;;2252000;61;20370;-53
2023/03/24 06:23:22;0.00;0.00;0.62;0.00;0.00;0.62;2.00;1.43;;;24.80;26.10;;;;;;2251668;61;20386;-52
2023/03/24 06:26:29;0.00;0.00;0.62;0.00;0.00;0.62;1.90;1.37;;;24.80;26.10;;;;;;2252143;61;20386;-49
2023/03/24 06:29:19;0.00;0.00;0.62;0.00;0.00;0.62;1.60;1.10;;;24.80;26.10;;;;;;2251867;61;20979;-53
2023/03/24 06:32:05;0.00;0.00;0.62;0.00;0.00;0.62;1.63;1.10;;;24.80;26.10;;;;;;2251700;61;20382;-55
2023/03/24 06:34:55;0.00;0.00;0.62;0.00;0.00;0.62;1.90;1.20;;;24.80;26.10;;;;;;2251909;61;20403;-52
2023/03/24 06:38:03;0.00;0.00;0.62;0.00;0.00;0.62;2.10;1.53;;;24.80;26.10;;;;;;2251660;61;20429;-54
2023/03/24 06:40:49;0.00;0.00;0.62;0.00;0.00;0.62;1.83;1.10;;;24.80;26.10;;;;;;2251843;61;20367;-49
2023/03/24 06:43:35;0.00;0.00;0.62;0.00;0.00;0.62;2.40;1.30;;;24.80;26.20;;;;;;2252301;61;20393;-51
2023/03/24 06:46:19;0.00;0.00;0.62;0.00;0.00;0.62;2.13;1.60;;;24.80;26.10;;;;;;2251506;61;20418;-52
2023/03/24 06:49:05;0.00;0.00;0.62;0.00;0.00;0.62;2.07;1.33;;;24.80;26.20;;;;;;2251713;61;20375;-51
2023/03/24 06:51:50;0.00;0.00;0.62;0.00;0.00;0.62;1.90;1.37;;;24.80;26.20;;;;;;2252301;61;20370;-53
2023/03/24 06:54:36;0.00;0.00;0.62;0.00;0.00;0.62;2.90;1.70;;;24.80;26.20;;;;;;2251764;61;20445;-48
2023/03/24 06:57:23;0.00;0.00;0.62;0.00;0.00;0.62;2.80;1.87;;;24.80;26.20;;;;;;2252286;61;20413;-53
2023/03/24 07:00:28;0.00;0.00;0.62;0.00;0.00;0.62;2.40;1.80;;;24.80;26.20;;;;;;2251329;61;20430;-50
2023/03/24 07:03:26;0.00;0.00;0.62;0.00;0.00;0.62;2.50;1.80;;;24.80;26.20;;;;;;2252258;61;20363;-49
2023/03/24 07:06:37;0.00;0.00;0.62;0.00;0.00;0.62;3.33;2.27;;;24.80;26.20;;;;;;2252634;61;20800;-53
2023/03/24 07:09:30;0.00;0.00;0.62;0.00;0.00;0.62;2.30;1.73;;;24.80;26.20;;;;;;2251491;61;20358;-52
2023/03/24 07:12:15;0.00;0.00;0.62;0.00;0.00;0.62;2.20;1.70;;;24.80;26.20;;;;;;2252387;61;20393;-48
2023/03/24 07:15:03;0.00;0.00;0.62;0.00;0.00;0.62;2.93;2.00;;;24.80;26.20;;;;;;2251169;61;20950;-55
2023/03/24 07:17:48;0.00;0.00;0.62;0.00;0.00;0.62;2.40;1.70;;;24.80;26.20;;;;;;2252216;61;20771;-50
2023/03/24 07:20:51;0.00;0.00;0.62;0.00;0.00;0.62;3.43;2.33;;;24.80;26.20;;;;;;2252382;61;20418;-52
2023/03/24 07:23:39;0.00;0.00;0.62;0.00;0.00;0.62;2.10;1.60;;;24.80;26.20;;;;;;2251469;61;20379;-50
2023/03/24 07:26:30;0.00;0.00;0.62;0.00;0.00;0.62;3.00;2.60;;;24.80;26.20;;;;;;2252199;61;20972;-54
2023/03/24 07:29:26;0.00;0.00;0.62;0.00;0.00;0.62;2.83;1.97;;;24.80;26.20;;;;;;2250721;61;20383;-55
2023/03/24 07:32:23;0.00;0.00;0.62;0.00;0.00;0.62;2.80;2.00;;;24.80;26.20;;;;;;2252125;61;20424;-50
2023/03/24 07:35:11;0.00;0.00;0.62;0.00;0.00;0.62;2.27;1.80;;;24.80;26.20;;;;;;2255083;61;20407;-54
2023/03/24 07:37:57;0.00;0.00;0.62;0.00;0.00;0.62;2.57;1.93;;;24.80;26.20;;;;;;2253369;61;20459;-49
2023/03/24 07:40:41;0.00;0.00;0.62;0.00;0.00;0.62;2.63;1.93;;;24.80;26.20;;;;;;2251925;61;20366;-54
2023/03/24 07:43:26;0.00;0.00;0.62;0.00;0.00;0.62;2.90;2.07;;;24.80;26.30;;;;;;2252136;61;20455;-49
2023/03/24 07:46:37;0.00;0.00;0.62;0.00;0.00;0.62;2.43;1.70;;;24.80;26.20;;;;;;2252514;61;20395;-51
2023/03/24 07:49:24;0.00;0.00;0.62;0.00;0.00;0.62;2.73;1.90;;;24.80;26.30;;;;;;2252077;61;20406;-53
2023/03/24 07:52:18;0.00;0.00;0.62;0.00;0.00;0.62;2.90;2.10;;;24.80;26.30;;;;;;2251087;61;20395;-51
2023/03/24 07:55:14;0.00;0.00;0.62;0.00;0.00;0.62;2.33;1.70;;;24.80;26.30;;;;;;2251967;61;20407;-51
2023/03/24 07:58:10;0.00;0.00;0.62;0.00;0.00;0.62;2.33;1.60;;;24.80;26.30;;;;;;2252154;61;20360;-56
2023/03/24 08:00:59;0.00;0.00;0.62;0.00;0.00;0.62;2.10;1.70;;;24.80;26.30;;;;;;2254083;61;20402;-51
2023/03/24 08:03:54;0.00;0.00;0.62;0.00;0.00;0.62;2.70;2.23;;;24.80;26.30;;;;;;2252040;61;20370;-53
2023/03/24 08:06:59;0.00;0.00;0.62;0.00;0.00;0.62;2.50;1.97;;;24.80;26.30;;;;;;2251515;61;20493;-51
2023/03/24 08:09:44;0.00;0.00;0.62;0.00;0.00;0.62;2.37;1.83;;;24.80;26.30;;;;;;2252012;61;20375;-50
2023/03/24 08:12:29;0.00;0.00;0.62;0.00;0.00;0.62;2.53;2.00;;;24.80;26.30;;;;;;2252369;61;20422;-52
2023/03/24 08:15:14;0.00;0.00;0.62;0.00;0.00;0.62;2.80;2.07;;;24.80;26.30;;;;;;2251059;61;20454;-53
2023/03/24 08:17:59;0.00;0.00;0.62;0.00;0.00;0.62;2.70;2.10;;;24.80;26.30;;;;;;2252558;61;20394;-48
2023/03/24 08:20:43;0.00;0.00;0.62;0.00;0.00;0.62;3.73;2.47;;;24.80;26.30;;;;;;2251723;61;20386;-52
2023/03/24 08:23:29;0.00;0.00;0.62;0.00;0.00;0.62;3.00;2.40;;;24.80;26.30;;;;;;2252239;61;20768;-51
2023/03/24 08:26:14;0.00;0.00;0.62;0.00;0.00;0.62;3.80;2.53;;;24.80;26.30;;;;;;2252472;61;20427;-50
2023/03/24 08:28:58;0.00;0.00;0.62;0.00;0.00;0.62;3.03;2.37;;;24.80;26.30;;;;;;2251427;61;20907;-57
2023/03/24 08:31:43;0.00;0.00;0.62;0.00;0.00;0.62;4.00;3.17;;;24.80;26.30;;;;;;2252340;61;20483;-50
2023/03/24 08:34:28;0.00;0.00;0.62;0.00;0.00;0.62;3.70;2.90;;;24.80;26.30;;;;;;2252186;61;20378;-59
2023/03/24 08:37:12;0.00;0.00;0.62;0.00;0.00;0.62;3.23;2.63;;;24.80;26.30;;;;;;2251585;61;20410;-58
2023/03/24 08:40:10;0.00;0.00;0.62;0.00;0.00;0.62;3.50;2.90;;;24.80;26.30;;;;;;2251985;61;20951;-56
2023/03/24 08:42:58;0.00;0.00;0.62;0.00;0.00;0.62;3.33;2.80;;;24.80;26.30;;;;;;2252244;61;20370;-62
2023/03/24 08:45:43;0.00;0.00;0.62;0.00;0.00;0.62;4.13;3.27;;;24.80;26.30;;;;;;2252217;61;20619;-49
2023/03/24 08:48:30;0.00;0.00;0.62;0.00;0.00;0.62;3.70;2.93;;;24.80;26.30;;;;;;2252137;61;20407;-52
2023/03/24 08:51:16;0.00;0.00;0.62;0.00;0.00;0.62;3.63;2.80;;;24.80;26.30;;;;;;2251088;61;20782;-52
2023/03/24 08:54:02;0.00;0.00;0.62;0.00;0.00;0.62;3.73;2.80;;;24.80;26.30;;;;;;2252357;61;20370;-53
2023/03/24 08:56:48;0.00;0.00;0.62;0.00;0.00;0.62;4.03;3.33;;;24.80;26.30;;;;;;2252002;61;20406;-49
2023/03/24 08:59:33;0.00;0.00;0.62;0.00;0.00;0.62;4.13;2.97;;;24.80;26.40;;;;;;2251209;61;20410;-52
2023/03/24 09:02:18;0.00;0.00;0.62;0.00;0.00;0.62;4.83;3.47;;;24.80;26.30;;;;;;2252489;61;20394;-50
2023/03/24 09:05:03;0.00;0.00;0.62;0.00;0.00;0.62;3.63;3.23;;;24.90;26.40;;;;;;2252217;61;20403;-57
2023/03/24 09:07:50;0.00;0.00;0.62;0.00;0.00;0.62;3.83;3.23;;;24.90;26.40;;;;;;2251859;61;20407;-54
2023/03/24 09:10:35;0.00;0.00;0.62;0.00;0.00;0.62;3.37;2.90;;;24.90;26.40;;;;;;2252010;61;20478;-58
2023/03/24 09:13:21;0.00;0.00;0.62;0.00;0.00;0.62;3.97;3.23;;;24.90;26.40;;;;;;2251312;61;20366;-53
2023/03/24 09:16:06;0.00;0.00;0.62;0.00;0.00;0.62;3.90;3.40;;;24.90;26.40;;;;;;2252408;61;20425;-51
2023/03/24 09:18:51;0.00;0.00;0.62;0.00;0.00;0.62;5.17;3.70;;;24.90;26.40;;;;;;2251763;61;20414;-53
2023/03/24 09:21:37;0.00;0.00;0.62;0.00;0.00;0.62;4.23;3.20;;;24.90;26.40;;;;;;2251435;61;20457;-54
2023/03/24 09:24:22;0.00;0.00;0.62;0.00;0.00;0.62;4.17;3.20;;;24.90;26.40;;;;;;2251977;61;20393;-55
2023/03/24 09:27:06;0.00;0.00;0.62;0.00;0.00;0.62;4.23;3.40;;;24.90;26.40;;;;;;2252079;61;20457;-58
2023/03/24 09:29:52;0.00;0.00;0.62;0.00;0.00;0.62;3.83;3.30;;;24.90;26.40;;;;;;2251613;61;20386;-52
2023/03/24 09:32:37;0.00;0.00;0.62;0.00;0.00;0.62;4.30;3.23;;;24.90;26.40;;;;;;2252433;61;20788;-58
2023/03/24 09:35:22;0.00;0.00;0.62;0.00;0.00;0.62;4.00;2.97;;;25.00;26.50;;;;;;2251178;61;20394;-60
2023/03/24 09:38:09;0.00;0.00;0.62;0.00;0.00;0.62;4.43;3.20;;;24.90;26.40;;;;;;2252434;61;20416;-59
2023/03/24 09:40:59;0.00;0.00;0.62;0.00;0.00;0.62;3.80;2.97;;;24.90;26.40;;;;;;2251923;61;20367;-60
2023/03/24 09:43:52;0.00;0.00;0.62;0.00;0.00;0.62;4.10;3.17;;;25.00;26.40;;;;;;2251228;61;20457;-57
2023/03/24 09:46:43;0.00;0.00;0.62;0.00;0.00;0.62;4.37;3.50;;;25.00;26.50;;;;;;2251963;61;20445;-58
2023/03/24 09:49:33;0.00;0.00;0.62;0.00;0.00;0.62;4.87;3.90;;;25.00;26.50;;;;;;2251649;61;20531;-54
2023/03/24 09:52:26;0.00;0.00;0.62;0.00;0.00;0.62;4.93;3.70;;;25.00;26.50;;;;;;2252000;61;20363;-58
2023/03/24 09:55:15;0.00;0.00;0.62;0.00;0.00;0.62;4.37;3.03;;;25.00;26.50;;;;;;2252172;61;20481;-55
2023/03/24 09:58:07;0.00;0.00;0.62;0.00;0.00;0.62;4.00;2.83;;;25.00;26.50;;;;;;2251591;61;20374;-59
2023/03/24 10:00:51;0.00;0.00;0.62;0.00;0.00;0.62;3.57;2.60;;;25.00;26.50;;;;;;2251910;61;20908;-56
2023/03/24 10:03:38;0.00;0.00;0.62;0.00;0.00;0.62;3.40;2.83;;;25.00;26.50;;;;;;2252226;61;20934;-58
2023/03/24 10:06:25;0.00;0.00;0.62;0.00;0.00;0.62;3.70;3.00;;;25.00;26.60;;;;;;2313881;40;22218;-60
2023/03/24 10:09:22;0.00;0.00;0.62;0.00;0.00;0.62;3.57;3.03;;;25.00;26.60;;;;;;2255733;61;20373;-58
2023/03/24 10:12:27;0.00;0.00;0.62;0.00;0.00;0.62;3.40;3.07;;;25.00;26.60;;;;;;2255559;61;20502;-60
2023/03/24 10:15:23;0.00;0.00;0.62;0.00;0.00;0.62;4.20;3.27;;;25.00;26.60;;;;;;2258276;61;20881;-58
2023/03/24 10:18:26;0.00;0.00;0.62;0.00;0.00;0.62;4.00;3.60;;;25.10;26.70;;;;;;2256101;61;20350;-56
2023/03/24 10:21:19;0.00;0.00;0.62;0.00;0.00;0.62;3.80;3.13;;;25.10;26.70;;;;;;2254962;61;20449;-60
2023/03/24 10:24:11;0.00;0.00;0.62;0.00;0.00;0.62;3.73;2.97;;;25.10;26.70;;;;;;2256312;61;20903;-58
2023/03/24 10:27:03;0.00;0.00;0.62;0.00;0.00;0.62;4.20;3.27;;;25.10;26.70;;;;;;2255466;61;20808;-58
2023/03/24 10:29:53;0.00;0.00;0.62;0.00;0.00;0.62;3.07;2.70;;;25.10;26.70;;;;;;2255596;61;20424;-58
2023/03/24 10:32:40;0.00;0.00;0.62;0.00;0.00;0.62;4.90;3.73;;;25.10;26.70;;;;;;2255996;61;20397;-59
2023/03/24 10:35:29;0.00;0.00;0.62;0.00;0.00;0.62;3.87;3.13;;;25.10;26.70;;;;;;2255305;61;20532;-58
2023/03/24 10:38:20;0.00;0.00;0.62;0.00;0.00;0.62;4.60;3.43;;;25.20;26.70;;;;;;2256309;61;20366;-60
2023/03/24 10:41:05;0.00;0.00;0.62;0.00;0.00;0.62;3.97;2.80;;;25.20;26.70;;;;;;2255678;61;20919;-60
2023/03/24 10:43:53;0.00;0.00;0.62;0.00;0.00;0.62;4.03;3.23;;;25.20;26.60;;;;;;2255505;61;20385;-58
2023/03/24 10:46:43;0.00;0.00;0.62;0.00;0.00;0.62;3.67;3.30;;;25.20;26.60;;;;;;2255979;61;20440;-55
2023/03/24 10:49:30;0.00;0.00;0.62;0.00;0.00;0.62;5.60;3.50;;;25.20;26.60;;;;;;2255467;61;20425;-60
2023/03/24 10:52:14;0.00;0.00;0.62;0.00;0.00;0.62;4.93;4.07;;;25.20;26.60;;;;;;2256978;61;20435;-58
2023/03/24 10:55:06;0.00;0.00;0.62;0.00;0.00;0.62;3.77;3.30;;;25.20;26.60;;;;;;2256768;61;20357;-59
2023/03/24 10:57:56;0.00;0.00;0.62;0.00;0.00;0.62;3.60;3.13;;;25.20;26.60;;;;;;2256005;61;20446;-59
2023/03/24 11:00:44;0.00;0.00;0.62;0.00;0.00;0.62;4.20;3.73;;;25.20;26.60;;;;;;2256384;61;20778;-59
2023/03/24 11:03:33;0.00;0.00;0.62;0.00;0.00;0.62;4.00;3.37;;;25.30;26.70;;;;;;2256383;61;20978;-57
2023/03/24 11:06:20;0.00;0.00;0.62;0.00;0.00;0.62;3.50;3.17;;;25.30;26.70;;;;;;2256500;61;20973;-60
2023/03/24 11:09:16;0.00;0.00;0.62;0.00;0.00;0.62;4.03;3.40;;;25.30;27.20;;;;;;2258578;61;20369;-60
2023/03/24 11:12:04;0.00;0.00;0.62;0.00;0.00;0.62;4.27;3.40;;;25.30;26.70;;;;;;2256110;61;20894;-58
2023/03/24 11:14:49;0.00;0.00;0.62;0.00;0.00;0.62;3.93;3.53;;;25.30;26.70;;;;;;2256688;61;20389;-57